sensor_id;sensor_type;location;lat;lon;timestamp;P1;durP1;ratioP1;P2;durP2;ratioP2
18316;SDS011;9284;52.298;21.164;2022-09-20T03:17:01;31.33;;;15.23;;
18316;SDS011;9284;52.298;21.164;2022-09-20T03:19:43;35.63;;;17.10;;
18316;SDS011;9284;52.298;21.164;2022-09-20T03:22:25;33.10;;;15.98;;
18316;SDS011;9284;52.298;21.164;2022-09-20T03:25:03;34.45;;;15.02;;
18316;SDS011;9284;52.298;21.164;2022-09-20T03:27:52;36.83;;;17.67;;
18316;SDS011;9284;52.298;21.164;2022-09-20T03:30:34;36.47;;;18.02;;
18316;SDS011;9284;52.298;21.164;2022-09-20T03:33:14;37.88;;;16.77;;
18316;SDS011;9284;52.298;21.164;2022-09-20T03:35:51;34.33;;;15.73;;
18316;SDS011;9284;52.298;21.164;2022-09-20T03:38:33;25.13;;;13.95;;
18316;SDS011;9284;52.298;21.164;2022-09-20T03:41:17;29.80;;;14.00;;
18316;SDS011;9284;52.298;21.164;2022-09-20T03:44:19;32.67;;;15.00;;
18316;SDS011;9284;52.298;21.164;2022-09-20T03:46:59;28.77;;;14.20;;
18316;SDS011;9284;52.298;21.164;2022-09-20T03:52:48;27.88;;;14.43;;
18316;SDS011;9284;52.298;21.164;2022-09-20T03:55:34;24.98;;;13.25;;
18316;SDS011;9284;52.298;21.164;2022-09-20T03:58:15;30.75;;;14.75;;
18316;SDS011;9284;52.298;21.164;2022-09-20T04:00:59;27.65;;;14.25;;
18316;SDS011;9284;52.298;21.164;2022-09-20T04:03:44;24.50;;;13.13;;
18316;SDS011;9284;52.298;21.164;2022-09-20T04:12:15;30.85;;;14.07;;
18316;SDS011;9284;52.298;21.164;2022-09-20T04:14:53;28.23;;;14.63;;
18316;SDS011;9284;52.298;21.164;2022-09-20T04:17:34;29.50;;;14.85;;
18316;SDS011;9284;52.298;21.164;2022-09-20T04:20:16;26.85;;;13.90;;
18316;SDS011;9284;52.298;21.164;2022-09-20T04:22:50;24.23;;;13.52;;
18316;SDS011;9284;52.298;21.164;2022-09-20T04:25:26;22.05;;;13.48;;
18316;SDS011;9284;52.298;21.164;2022-09-20T04:28:00;29.30;;;14.55;;
18316;SDS011;9284;52.298;21.164;2022-09-20T04:30:35;21.65;;;13.18;;
18316;SDS011;9284;52.298;21.164;2022-09-20T04:33:12;24.10;;;12.82;;
18316;SDS011;9284;52.298;21.164;2022-09-20T04:35:47;22.73;;;13.68;;
18316;SDS011;9284;52.298;21.164;2022-09-20T04:38:43;27.23;;;13.93;;
18316;SDS011;9284;52.298;21.164;2022-09-20T04:41:27;24.52;;;13.80;;
18316;SDS011;9284;52.298;21.164;2022-09-20T04:44:19;25.13;;;13.20;;
18316;SDS011;9284;52.298;21.164;2022-09-20T04:50:19;24.77;;;12.60;;
18316;SDS011;9284;52.298;21.164;2022-09-20T04:56:06;21.58;;;12.32;;
18316;SDS011;9284;52.298;21.164;2022-09-20T04:58:55;22.73;;;12.93;;
18316;SDS011;9284;52.298;21.164;2022-09-20T05:01:51;24.85;;;12.80;;
18316;SDS011;9284;52.298;21.164;2022-09-20T05:05:01;20.17;;;12.55;;
18316;SDS011;9284;52.298;21.164;2022-09-20T05:14:09;21.00;;;11.82;;
18316;SDS011;9284;52.298;21.164;2022-09-20T05:16:58;23.27;;;11.35;;
18316;SDS011;9284;52.298;21.164;2022-09-20T05:19:38;20.48;;;12.68;;
18316;SDS011;9284;52.298;21.164;2022-09-20T05:22:29;20.65;;;12.02;;
18316;SDS011;9284;52.298;21.164;2022-09-20T05:28:11;24.75;;;13.15;;
18316;SDS011;9284;52.298;21.164;2022-09-20T05:30:48;20.42;;;12.05;;
18316;SDS011;9284;52.298;21.164;2022-09-20T05:33:21;21.65;;;12.57;;
18316;SDS011;9284;52.298;21.164;2022-09-20T05:35:58;19.33;;;11.68;;
18316;SDS011;9284;52.298;21.164;2022-09-20T05:38:37;19.40;;;11.95;;
18316;SDS011;9284;52.298;21.164;2022-09-20T05:41:15;24.05;;;12.00;;
18316;SDS011;9284;52.298;21.164;2022-09-20T05:43:52;18.95;;;12.05;;
18316;SDS011;9284;52.298;21.164;2022-09-20T05:46:35;19.50;;;12.15;;
18316;SDS011;9284;52.298;21.164;2022-09-20T05:49:14;21.25;;;12.50;;
18316;SDS011;9284;52.298;21.164;2022-09-20T05:51:58;20.10;;;11.88;;
18316;SDS011;9284;52.298;21.164;2022-09-20T05:54:52;21.42;;;12.20;;
18316;SDS011;9284;52.298;21.164;2022-09-20T05:57:52;20.98;;;12.07;;
18316;SDS011;9284;52.298;21.164;2022-09-20T06:00:34;21.45;;;12.35;;
18316;SDS011;9284;52.298;21.164;2022-09-20T06:03:12;19.98;;;11.90;;
18316;SDS011;9284;52.298;21.164;2022-09-20T06:05:45;19.33;;;11.27;;
18316;SDS011;9284;52.298;21.164;2022-09-20T06:08:25;20.38;;;12.18;;
18316;SDS011;9284;52.298;21.164;2022-09-20T06:11:17;18.90;;;11.95;;
18316;SDS011;9284;52.298;21.164;2022-09-20T06:14:09;17.70;;;11.57;;
18316;SDS011;9284;52.298;21.164;2022-09-20T06:16:46;20.17;;;11.85;;
18316;SDS011;9284;52.298;21.164;2022-09-20T06:19:24;17.58;;;11.05;;
18316;SDS011;9284;52.298;21.164;2022-09-20T06:22:02;16.63;;;10.40;;
18316;SDS011;9284;52.298;21.164;2022-09-20T06:24:41;18.50;;;10.95;;
18316;SDS011;9284;52.298;21.164;2022-09-20T06:27:14;18.60;;;10.80;;
18316;SDS011;9284;52.298;21.164;2022-09-20T06:29:48;20.52;;;10.93;;
18316;SDS011;9284;52.298;21.164;2022-09-20T06:32:20;17.80;;;10.77;;
18316;SDS011;9284;52.298;21.164;2022-09-20T06:34:49;18.52;;;10.82;;
18316;SDS011;9284;52.298;21.164;2022-09-20T06:37:20;16.02;;;10.85;;
18316;SDS011;9284;52.298;21.164;2022-09-20T06:40:26;20.08;;;11.50;;
18316;SDS011;9284;52.298;21.164;2022-09-20T06:43:16;15.10;;;9.63;;
18316;SDS011;9284;52.298;21.164;2022-09-20T06:45:44;16.15;;;10.50;;
18316;SDS011;9284;52.298;21.164;2022-09-20T06:48:13;15.15;;;9.63;;
18316;SDS011;9284;52.298;21.164;2022-09-20T06:50:43;15.43;;;9.30;;
18316;SDS011;9284;52.298;21.164;2022-09-20T06:53:13;15.88;;;9.13;;
18316;SDS011;9284;52.298;21.164;2022-09-20T06:55:44;16.02;;;9.80;;
18316;SDS011;9284;52.298;21.164;2022-09-20T06:58:13;13.35;;;9.50;;
18316;SDS011;9284;52.298;21.164;2022-09-20T07:00:42;14.35;;;9.45;;
18316;SDS011;9284;52.298;21.164;2022-09-20T07:03:10;16.42;;;9.50;;
18316;SDS011;9284;52.298;21.164;2022-09-20T07:05:39;15.27;;;9.63;;
18316;SDS011;9284;52.298;21.164;2022-09-20T07:08:12;13.18;;;9.05;;
18316;SDS011;9284;52.298;21.164;2022-09-20T07:10:46;13.48;;;9.25;;
18316;SDS011;9284;52.298;21.164;2022-09-20T07:13:14;14.55;;;8.95;;
18316;SDS011;9284;52.298;21.164;2022-09-20T07:15:45;15.13;;;9.30;;
18316;SDS011;9284;52.298;21.164;2022-09-20T07:18:14;13.75;;;9.18;;
18316;SDS011;9284;52.298;21.164;2022-09-20T07:20:43;12.32;;;8.55;;
18316;SDS011;9284;52.298;21.164;2022-09-20T07:23:15;13.27;;;9.23;;
18316;SDS011;9284;52.298;21.164;2022-09-20T07:25:44;14.23;;;9.15;;
18316;SDS011;9284;52.298;21.164;2022-09-20T07:28:13;12.70;;;8.63;;
18316;SDS011;9284;52.298;21.164;2022-09-20T07:30:41;13.70;;;9.07;;
18316;SDS011;9284;52.298;21.164;2022-09-20T07:33:10;12.07;;;8.95;;
18316;SDS011;9284;52.298;21.164;2022-09-20T07:35:42;13.43;;;9.48;;
18316;SDS011;9284;52.298;21.164;2022-09-20T07:38:10;17.67;;;10.27;;
18316;SDS011;9284;52.298;21.164;2022-09-20T07:40:40;13.40;;;9.60;;
18316;SDS011;9284;52.298;21.164;2022-09-20T07:43:09;14.80;;;9.95;;
18316;SDS011;9284;52.298;21.164;2022-09-20T07:45:37;13.00;;;9.13;;
18316;SDS011;9284;52.298;21.164;2022-09-20T07:48:07;13.68;;;8.88;;
18316;SDS011;9284;52.298;21.164;2022-09-20T07:50:35;12.20;;;9.55;;
18316;SDS011;9284;52.298;21.164;2022-09-20T07:53:04;13.10;;;9.15;;
18316;SDS011;9284;52.298;21.164;2022-09-20T07:55:34;13.32;;;8.85;;
18316;SDS011;9284;52.298;21.164;2022-09-20T07:58:02;11.10;;;8.50;;
18316;SDS011;9284;52.298;21.164;2022-09-20T08:00:30;12.50;;;8.82;;
18316;SDS011;9284;52.298;21.164;2022-09-20T08:02:58;12.32;;;8.55;;
18316;SDS011;9284;52.298;21.164;2022-09-20T08:05:27;15.52;;;9.35;;
18316;SDS011;9284;52.298;21.164;2022-09-20T08:07:56;11.15;;;8.55;;
18316;SDS011;9284;52.298;21.164;2022-09-20T08:10:26;11.85;;;8.65;;
18316;SDS011;9284;52.298;21.164;2022-09-20T08:12:56;13.25;;;8.00;;
18316;SDS011;9284;52.298;21.164;2022-09-20T08:15:46;11.10;;;7.93;;
18316;SDS011;9284;52.298;21.164;2022-09-20T08:18:17;12.70;;;8.23;;
18316;SDS011;9284;52.298;21.164;2022-09-20T08:20:45;12.02;;;7.65;;
18316;SDS011;9284;52.298;21.164;2022-09-20T08:23:14;13.93;;;8.70;;
18316;SDS011;9284;52.298;21.164;2022-09-20T08:25:49;12.30;;;8.55;;
18316;SDS011;9284;52.298;21.164;2022-09-20T08:28:19;11.15;;;7.57;;
18316;SDS011;9284;52.298;21.164;2022-09-20T08:30:47;10.27;;;7.45;;
18316;SDS011;9284;52.298;21.164;2022-09-20T08:33:15;12.70;;;7.63;;
18316;SDS011;9284;52.298;21.164;2022-09-20T08:35:47;8.20;;;6.28;;
18316;SDS011;9284;52.298;21.164;2022-09-20T08:38:15;9.35;;;6.53;;
18316;SDS011;9284;52.298;21.164;2022-09-20T08:41:04;9.57;;;6.75;;
18316;SDS011;9284;52.298;21.164;2022-09-20T08:43:41;10.90;;;6.32;;
18316;SDS011;9284;52.298;21.164;2022-09-20T08:46:14;10.88;;;7.18;;
18316;SDS011;9284;52.298;21.164;2022-09-20T08:48:49;9.25;;;6.95;;
18316;SDS011;9284;52.298;21.164;2022-09-20T08:51:20;10.18;;;6.57;;
18316;SDS011;9284;52.298;21.164;2022-09-20T08:53:58;11.30;;;6.90;;
18316;SDS011;9284;52.298;21.164;2022-09-20T08:56:30;11.95;;;7.70;;
18316;SDS011;9284;52.298;21.164;2022-09-20T08:59:13;12.00;;;7.20;;
18316;SDS011;9284;52.298;21.164;2022-09-20T09:01:45;10.85;;;7.07;;
18316;SDS011;9284;52.298;21.164;2022-09-20T09:04:16;13.35;;;7.63;;
18316;SDS011;9284;52.298;21.164;2022-09-20T09:06:47;15.48;;;7.70;;
18316;SDS011;9284;52.298;21.164;2022-09-20T09:09:17;11.90;;;7.28;;
18316;SDS011;9284;52.298;21.164;2022-09-20T09:11:49;15.02;;;8.10;;
18316;SDS011;9284;52.298;21.164;2022-09-20T09:14:25;13.65;;;7.57;;
18316;SDS011;9284;52.298;21.164;2022-09-20T09:17:13;9.73;;;7.25;;
18316;SDS011;9284;52.298;21.164;2022-09-20T09:19:53;13.15;;;7.32;;
18316;SDS011;9284;52.298;21.164;2022-09-20T09:22:24;11.35;;;7.47;;
18316;SDS011;9284;52.298;21.164;2022-09-20T09:27:50;11.32;;;7.25;;
18316;SDS011;9284;52.298;21.164;2022-09-20T09:30:23;11.88;;;7.88;;
18316;SDS011;9284;52.298;21.164;2022-09-20T09:33:13;15.35;;;7.95;;
18316;SDS011;9284;52.298;21.164;2022-09-20T09:35:53;15.55;;;8.00;;
18316;SDS011;9284;52.298;21.164;2022-09-20T09:38:28;15.98;;;7.63;;
18316;SDS011;9284;52.298;21.164;2022-09-20T09:40:58;11.45;;;7.18;;
18316;SDS011;9284;52.298;21.164;2022-09-20T09:43:31;11.73;;;7.43;;
18316;SDS011;9284;52.298;21.164;2022-09-20T09:49:02;9.48;;;6.85;;
18316;SDS011;9284;52.298;21.164;2022-09-20T09:51:41;12.68;;;7.82;;
18316;SDS011;9284;52.298;21.164;2022-09-20T09:54:27;12.75;;;8.30;;
18316;SDS011;9284;52.298;21.164;2022-09-20T09:57:02;21.17;;;9.75;;
18316;SDS011;9284;52.298;21.164;2022-09-20T09:59:54;14.30;;;9.57;;
18316;SDS011;9284;52.298;21.164;2022-09-20T10:05:48;18.20;;;12.07;;
18316;SDS011;9284;52.298;21.164;2022-09-20T10:08:34;22.17;;;11.55;;
18316;SDS011;9284;52.298;21.164;2022-09-20T10:11:15;21.45;;;11.70;;
18316;SDS011;9284;52.298;21.164;2022-09-20T10:14:10;18.58;;;12.95;;
18316;SDS011;9284;52.298;21.164;2022-09-20T10:17:09;24.92;;;15.52;;
18316;SDS011;9284;52.298;21.164;2022-09-20T10:20:06;17.40;;;10.63;;
18316;SDS011;9284;52.298;21.164;2022-09-20T10:22:51;15.65;;;10.40;;
18316;SDS011;9284;52.298;21.164;2022-09-20T10:25:52;14.73;;;9.88;;
18316;SDS011;9284;52.298;21.164;2022-09-20T10:28:39;12.73;;;9.00;;
18316;SDS011;9284;52.298;21.164;2022-09-20T10:31:30;11.25;;;8.73;;
18316;SDS011;9284;52.298;21.164;2022-09-20T10:34:30;11.57;;;7.88;;
18316;SDS011;9284;52.298;21.164;2022-09-20T10:37:13;11.70;;;8.63;;
18316;SDS011;9284;52.298;21.164;2022-09-20T10:39:59;14.07;;;9.23;;
18316;SDS011;9284;52.298;21.164;2022-09-20T10:42:41;13.07;;;8.32;;
18316;SDS011;9284;52.298;21.164;2022-09-20T10:45:35;9.05;;;7.03;;
18316;SDS011;9284;52.298;21.164;2022-09-20T10:48:39;10.95;;;6.70;;
18316;SDS011;9284;52.298;21.164;2022-09-20T10:51:18;9.23;;;6.13;;
18316;SDS011;9284;52.298;21.164;2022-09-20T10:53:55;7.47;;;5.40;;
18316;SDS011;9284;52.298;21.164;2022-09-20T10:56:36;15.45;;;5.38;;
18316;SDS011;9284;52.298;21.164;2022-09-20T11:05:11;14.50;;;6.43;;
18316;SDS011;9284;52.298;21.164;2022-09-20T11:07:55;6.50;;;4.90;;
18316;SDS011;9284;52.298;21.164;2022-09-20T11:10:32;10.30;;;5.70;;
18316;SDS011;9284;52.298;21.164;2022-09-20T11:13:05;9.85;;;5.70;;
18316;SDS011;9284;52.298;21.164;2022-09-20T11:15:40;10.65;;;6.28;;
18316;SDS011;9284;52.298;21.164;2022-09-20T11:18:20;8.25;;;6.13;;
18316;SDS011;9284;52.298;21.164;2022-09-20T11:20:53;7.63;;;5.10;;
18316;SDS011;9284;52.298;21.164;2022-09-20T11:23:39;10.52;;;5.75;;
18316;SDS011;9284;52.298;21.164;2022-09-20T11:26:15;9.02;;;5.80;;
18316;SDS011;9284;52.298;21.164;2022-09-20T11:28:53;6.80;;;4.90;;
18316;SDS011;9284;52.298;21.164;2022-09-20T11:31:30;6.80;;;4.07;;
18316;SDS011;9284;52.298;21.164;2022-09-20T11:34:07;8.23;;;5.85;;
18316;SDS011;9284;52.298;21.164;2022-09-20T11:36:41;5.68;;;4.25;;
18316;SDS011;9284;52.298;21.164;2022-09-20T11:39:19;7.15;;;4.72;;
18316;SDS011;9284;52.298;21.164;2022-09-20T11:41:55;8.60;;;5.30;;
18316;SDS011;9284;52.298;21.164;2022-09-20T11:44:28;5.55;;;4.60;;
18316;SDS011;9284;52.298;21.164;2022-09-20T11:46:57;6.82;;;4.40;;
18316;SDS011;9284;52.298;21.164;2022-09-20T11:49:28;8.23;;;4.65;;
18316;SDS011;9284;52.298;21.164;2022-09-20T11:52:14;5.03;;;4.20;;
18316;SDS011;9284;52.298;21.164;2022-09-20T11:55:15;6.70;;;4.53;;
18316;SDS011;9284;52.298;21.164;2022-09-20T11:58:01;7.15;;;4.60;;
18316;SDS011;9284;52.298;21.164;2022-09-20T12:00:35;6.35;;;4.20;;
18316;SDS011;9284;52.298;21.164;2022-09-20T12:03:16;5.82;;;4.50;;
18316;SDS011;9284;52.298;21.164;2022-09-20T12:05:55;5.93;;;4.00;;
18316;SDS011;9284;52.298;21.164;2022-09-20T12:08:26;5.95;;;4.75;;
18316;SDS011;9284;52.298;21.164;2022-09-20T12:10:57;6.55;;;4.30;;
18316;SDS011;9284;52.298;21.164;2022-09-20T12:13:29;5.40;;;3.60;;
18316;SDS011;9284;52.298;21.164;2022-09-20T12:16:04;6.80;;;4.10;;
18316;SDS011;9284;52.298;21.164;2022-09-20T12:24:31;5.38;;;3.78;;
18316;SDS011;9284;52.298;21.164;2022-09-20T12:27:01;7.05;;;3.60;;
18316;SDS011;9284;52.298;21.164;2022-09-20T12:32:46;4.20;;;3.20;;
18316;SDS011;9284;52.298;21.164;2022-09-20T12:38:26;4.20;;;3.65;;
18316;SDS011;9284;52.298;21.164;2022-09-20T12:40:58;3.30;;;2.72;;
18316;SDS011;9284;52.298;21.164;2022-09-20T12:43:29;3.55;;;3.05;;
18316;SDS011;9284;52.298;21.164;2022-09-20T12:45:59;5.90;;;3.05;;
18316;SDS011;9284;52.298;21.164;2022-09-20T12:48:35;4.13;;;2.65;;
18316;SDS011;9284;52.298;21.164;2022-09-20T12:51:05;7.65;;;3.40;;
18316;SDS011;9284;52.298;21.164;2022-09-20T12:54:03;4.88;;;3.05;;
18316;SDS011;9284;52.298;21.164;2022-09-20T12:56:34;7.28;;;3.30;;
18316;SDS011;9284;52.298;21.164;2022-09-20T12:59:04;8.65;;;3.70;;
18316;SDS011;9284;52.298;21.164;2022-09-20T13:01:46;6.90;;;3.45;;
18316;SDS011;9284;52.298;21.164;2022-09-20T13:10:33;6.00;;;3.47;;
18316;SDS011;9284;52.298;21.164;2022-09-20T13:13:11;4.55;;;3.08;;
18316;SDS011;9284;52.298;21.164;2022-09-20T13:15:47;7.25;;;3.35;;
18316;SDS011;9284;52.298;21.164;2022-09-20T13:18:17;5.30;;;3.20;;
18316;SDS011;9284;52.298;21.164;2022-09-20T13:20:47;29.55;;;6.57;;
18316;SDS011;9284;52.298;21.164;2022-09-20T13:23:20;12.30;;;4.60;;
18316;SDS011;9284;52.298;21.164;2022-09-20T13:25:53;6.05;;;3.47;;
18316;SDS011;9284;52.298;21.164;2022-09-20T13:28:28;3.20;;;2.80;;
18316;SDS011;9284;52.298;21.164;2022-09-20T13:34:11;5.65;;;3.78;;
18316;SDS011;9284;52.298;21.164;2022-09-20T13:36:50;5.28;;;3.47;;
18316;SDS011;9284;52.298;21.164;2022-09-20T13:39:27;5.82;;;3.33;;
18316;SDS011;9284;52.298;21.164;2022-09-20T13:42:01;4.75;;;3.75;;
18316;SDS011;9284;52.298;21.164;2022-09-20T13:44:33;8.32;;;3.70;;
18316;SDS011;9284;52.298;21.164;2022-09-20T13:47:05;5.82;;;3.25;;
18316;SDS011;9284;52.298;21.164;2022-09-20T13:49:49;6.95;;;3.40;;
18316;SDS011;9284;52.298;21.164;2022-09-20T13:52:21;4.82;;;2.60;;
18316;SDS011;9284;52.298;21.164;2022-09-20T13:54:52;11.43;;;2.80;;
18316;SDS011;9284;52.298;21.164;2022-09-20T13:57:22;3.00;;;2.47;;
18316;SDS011;9284;52.298;21.164;2022-09-20T13:59:54;7.93;;;2.75;;
18316;SDS011;9284;52.298;21.164;2022-09-20T14:02:28;8.85;;;3.15;;
18316;SDS011;9284;52.298;21.164;2022-09-20T14:04:58;8.15;;;2.90;;
18316;SDS011;9284;52.298;21.164;2022-09-20T14:07:28;3.83;;;1.92;;
18316;SDS011;9284;52.298;21.164;2022-09-20T14:09:58;5.22;;;1.90;;
18316;SDS011;9284;52.298;21.164;2022-09-20T14:12:27;6.85;;;2.47;;
18316;SDS011;9284;52.298;21.164;2022-09-20T14:14:55;4.40;;;2.30;;
18316;SDS011;9284;52.298;21.164;2022-09-20T14:17:24;7.45;;;2.50;;
18316;SDS011;9284;52.298;21.164;2022-09-20T14:19:59;6.30;;;2.33;;
18316;SDS011;9284;52.298;21.164;2022-09-20T14:22:27;7.78;;;3.33;;
18316;SDS011;9284;52.298;21.164;2022-09-20T14:25:02;2.30;;;1.85;;
18316;SDS011;9284;52.298;21.164;2022-09-20T14:27:44;3.33;;;1.70;;
18316;SDS011;9284;52.298;21.164;2022-09-20T14:30:28;2.67;;;1.70;;
18316;SDS011;9284;52.298;21.164;2022-09-20T14:32:58;1.50;;;1.30;;
18316;SDS011;9284;52.298;21.164;2022-09-20T14:35:26;5.50;;;2.72;;
18316;SDS011;9284;52.298;21.164;2022-09-20T14:37:55;5.97;;;2.45;;
18316;SDS011;9284;52.298;21.164;2022-09-20T14:40:27;6.70;;;2.10;;
18316;SDS011;9284;52.298;21.164;2022-09-20T14:42:57;1.90;;;1.40;;
18316;SDS011;9284;52.298;21.164;2022-09-20T14:45:29;4.63;;;1.80;;
18316;SDS011;9284;52.298;21.164;2022-09-20T14:47:59;3.67;;;1.55;;
18316;SDS011;9284;52.298;21.164;2022-09-20T14:50:36;2.33;;;1.65;;
18316;SDS011;9284;52.298;21.164;2022-09-20T14:53:22;2.30;;;2.10;;
18316;SDS011;9284;52.298;21.164;2022-09-20T14:55:58;4.60;;;2.10;;
18316;SDS011;9284;52.298;21.164;2022-09-20T15:01:56;2.42;;;1.20;;
18316;SDS011;9284;52.298;21.164;2022-09-20T15:04:30;1.95;;;1.30;;
18316;SDS011;9284;52.298;21.164;2022-09-20T15:07:00;4.60;;;1.45;;
18316;SDS011;9284;52.298;21.164;2022-09-20T15:09:30;2.42;;;1.30;;
18316;SDS011;9284;52.298;21.164;2022-09-20T15:12:02;3.38;;;1.40;;
18316;SDS011;9284;52.298;21.164;2022-09-20T15:14:32;6.72;;;1.50;;
18316;SDS011;9284;52.298;21.164;2022-09-20T15:17:03;2.42;;;1.75;;
18316;SDS011;9284;52.298;21.164;2022-09-20T15:19:32;2.85;;;1.60;;
18316;SDS011;9284;52.298;21.164;2022-09-20T15:22:00;3.78;;;1.60;;
18316;SDS011;9284;52.298;21.164;2022-09-20T15:24:28;2.33;;;1.50;;
18316;SDS011;9284;52.298;21.164;2022-09-20T15:26:57;4.95;;;2.10;;
18316;SDS011;9284;52.298;21.164;2022-09-20T15:29:29;3.47;;;1.38;;
18316;SDS011;9284;52.298;21.164;2022-09-20T15:31:57;4.45;;;2.35;;
18316;SDS011;9284;52.298;21.164;2022-09-20T15:34:26;6.50;;;2.00;;
18316;SDS011;9284;52.298;21.164;2022-09-20T15:36:54;6.63;;;1.80;;
18316;SDS011;9284;52.298;21.164;2022-09-20T15:39:22;4.80;;;1.27;;
18316;SDS011;9284;52.298;21.164;2022-09-20T15:41:51;2.08;;;1.13;;
18316;SDS011;9284;52.298;21.164;2022-09-20T15:44:19;2.42;;;1.20;;
18316;SDS011;9284;52.298;21.164;2022-09-20T15:46:50;1.27;;;1.10;;
18316;SDS011;9284;52.298;21.164;2022-09-20T15:49:21;2.15;;;1.10;;
18316;SDS011;9284;52.298;21.164;2022-09-20T15:52:04;6.53;;;1.33;;
18316;SDS011;9284;52.298;21.164;2022-09-20T15:54:33;1.95;;;1.30;;
18316;SDS011;9284;52.298;21.164;2022-09-20T15:57:02;1.40;;;1.05;;
18316;SDS011;9284;52.298;21.164;2022-09-20T15:59:30;4.05;;;1.60;;
18316;SDS011;9284;52.298;21.164;2022-09-20T16:02:01;2.17;;;1.60;;
18316;SDS011;9284;52.298;21.164;2022-09-20T16:04:31;2.53;;;1.40;;
18316;SDS011;9284;52.298;21.164;2022-09-20T16:07:01;3.45;;;1.70;;
18316;SDS011;9284;52.298;21.164;2022-09-20T16:09:31;2.85;;;1.65;;
18316;SDS011;9284;52.298;21.164;2022-09-20T16:12:03;3.05;;;1.63;;
18316;SDS011;9284;52.298;21.164;2022-09-20T16:14:34;3.55;;;2.17;;
18316;SDS011;9284;52.298;21.164;2022-09-20T16:17:04;3.95;;;2.40;;
18316;SDS011;9284;52.298;21.164;2022-09-20T16:19:32;3.53;;;2.67;;
18316;SDS011;9284;52.298;21.164;2022-09-20T16:22:00;4.88;;;2.30;;
18316;SDS011;9284;52.298;21.164;2022-09-20T16:24:29;7.47;;;2.10;;
18316;SDS011;9284;52.298;21.164;2022-09-20T16:26:59;3.53;;;2.35;;
18316;SDS011;9284;52.298;21.164;2022-09-20T16:29:29;2.85;;;2.55;;
18316;SDS011;9284;52.298;21.164;2022-09-20T16:31:58;4.25;;;3.22;;
18316;SDS011;9284;52.298;21.164;2022-09-20T16:34:33;6.40;;;4.50;;
18316;SDS011;9284;52.298;21.164;2022-09-20T16:37:03;6.65;;;4.68;;
18316;SDS011;9284;52.298;21.164;2022-09-20T16:43:35;10.63;;;6.25;;
18316;SDS011;9284;52.298;21.164;2022-09-20T16:46:13;13.57;;;8.45;;
18316;SDS011;9284;52.298;21.164;2022-09-20T17:08:08;31.30;;;16.70;;
18316;SDS011;9284;52.298;21.164;2022-09-20T17:10:51;42.53;;;22.65;;
18316;SDS011;9284;52.298;21.164;2022-09-20T17:36:40;32.33;;;17.92;;
18316;SDS011;9284;52.298;21.164;2022-09-20T17:39:11;29.23;;;16.95;;
18316;SDS011;9284;52.298;21.164;2022-09-20T17:55:22;23.83;;;13.50;;
18316;SDS011;9284;52.298;21.164;2022-09-20T17:57:51;22.35;;;13.63;;
18316;SDS011;9284;52.298;21.164;2022-09-20T18:00:21;24.33;;;15.00;;
18316;SDS011;9284;52.298;21.164;2022-09-20T18:02:57;27.52;;;15.85;;
18316;SDS011;9284;52.298;21.164;2022-09-20T18:05:30;29.00;;;16.08;;
18316;SDS011;9284;52.298;21.164;2022-09-20T18:07:59;24.23;;;15.80;;
18316;SDS011;9284;52.298;21.164;2022-09-20T18:10:35;28.23;;;15.18;;
18316;SDS011;9284;52.298;21.164;2022-09-20T18:13:11;27.38;;;15.32;;
18316;SDS011;9284;52.298;21.164;2022-09-20T18:15:41;24.92;;;15.38;;
18316;SDS011;9284;52.298;21.164;2022-09-20T18:18:13;26.23;;;16.02;;
18316;SDS011;9284;52.298;21.164;2022-09-20T18:20:44;26.67;;;16.25;;
18316;SDS011;9284;52.298;21.164;2022-09-20T18:23:58;29.92;;;16.15;;
18316;SDS011;9284;52.298;21.164;2022-09-20T18:26:40;28.40;;;16.27;;
18316;SDS011;9284;52.298;21.164;2022-09-20T18:29:18;30.13;;;16.85;;
18316;SDS011;9284;52.298;21.164;2022-09-20T18:31:47;32.25;;;17.52;;
18316;SDS011;9284;52.298;21.164;2022-09-20T18:34:20;33.85;;;20.27;;
18316;SDS011;9284;52.298;21.164;2022-09-20T18:36:51;36.50;;;21.23;;
18316;SDS011;9284;52.298;21.164;2022-09-20T18:39:20;39.35;;;22.45;;
18316;SDS011;9284;52.298;21.164;2022-09-20T18:41:53;32.53;;;20.10;;
18316;SDS011;9284;52.298;21.164;2022-09-20T18:44:22;30.98;;;17.80;;
18316;SDS011;9284;52.298;21.164;2022-09-20T18:46:52;31.60;;;17.48;;
18316;SDS011;9284;52.298;21.164;2022-09-20T18:49:21;30.20;;;17.77;;
18316;SDS011;9284;52.298;21.164;2022-09-20T18:51:51;32.20;;;17.13;;
18316;SDS011;9284;52.298;21.164;2022-09-20T18:54:22;33.22;;;17.67;;
18316;SDS011;9284;52.298;21.164;2022-09-20T18:56:52;27.00;;;16.60;;
18316;SDS011;9284;52.298;21.164;2022-09-20T18:59:22;32.08;;;17.48;;
18316;SDS011;9284;52.298;21.164;2022-09-20T19:01:55;29.85;;;17.75;;
18316;SDS011;9284;52.298;21.164;2022-09-20T19:04:47;30.65;;;19.63;;
18316;SDS011;9284;52.298;21.164;2022-09-20T19:07:31;29.98;;;18.77;;
18316;SDS011;9284;52.298;21.164;2022-09-20T19:10:07;29.67;;;18.17;;
18316;SDS011;9284;52.298;21.164;2022-09-20T19:12:51;31.30;;;17.13;;
18316;SDS011;9284;52.298;21.164;2022-09-20T19:15:30;33.90;;;18.85;;
18316;SDS011;9284;52.298;21.164;2022-09-20T19:18:16;31.17;;;17.80;;
18316;SDS011;9284;52.298;21.164;2022-09-20T19:20:58;32.03;;;17.77;;
18316;SDS011;9284;52.298;21.164;2022-09-20T19:24:45;31.75;;;17.42;;
18316;SDS011;9284;52.298;21.164;2022-09-20T19:26:50;31.42;;;17.02;;
18316;SDS011;9284;52.298;21.164;2022-09-20T19:29:21;29.98;;;17.27;;
18316;SDS011;9284;52.298;21.164;2022-09-20T19:31:57;34.47;;;18.83;;
18316;SDS011;9284;52.298;21.164;2022-09-20T19:34:27;34.10;;;19.80;;
18316;SDS011;9284;52.298;21.164;2022-09-20T19:37:08;34.20;;;18.58;;
18316;SDS011;9284;52.298;21.164;2022-09-20T19:40:05;32.03;;;17.48;;
18316;SDS011;9284;52.298;21.164;2022-09-20T19:42:47;28.98;;;17.50;;
18316;SDS011;9284;52.298;21.164;2022-09-20T19:45:25;29.95;;;15.80;;
18316;SDS011;9284;52.298;21.164;2022-09-20T19:48:05;28.70;;;15.38;;
18316;SDS011;9284;52.298;21.164;2022-09-20T19:50:41;25.60;;;13.55;;
18316;SDS011;9284;52.298;21.164;2022-09-20T19:53:12;20.60;;;13.07;;
18316;SDS011;9284;52.298;21.164;2022-09-20T19:55:42;21.02;;;12.52;;
18316;SDS011;9284;52.298;21.164;2022-09-20T19:58:14;22.88;;;13.35;;
18316;SDS011;9284;52.298;21.164;2022-09-20T20:00:45;23.05;;;13.95;;
18316;SDS011;9284;52.298;21.164;2022-09-20T20:03:14;24.48;;;15.27;;
18316;SDS011;9284;52.298;21.164;2022-09-20T20:05:45;26.58;;;13.77;;
18316;SDS011;9284;52.298;21.164;2022-09-20T20:08:18;23.38;;;13.05;;
18316;SDS011;9284;52.298;21.164;2022-09-20T20:10:53;23.35;;;13.13;;
18316;SDS011;9284;52.298;21.164;2022-09-20T20:13:29;25.73;;;14.32;;
18316;SDS011;9284;52.298;21.164;2022-09-20T20:16:23;25.80;;;14.77;;
18316;SDS011;9284;52.298;21.164;2022-09-20T20:19:03;30.15;;;16.38;;
18316;SDS011;9284;52.298;21.164;2022-09-20T20:21:45;29.52;;;15.30;;
18316;SDS011;9284;52.298;21.164;2022-09-20T20:24:21;28.48;;;16.20;;
18316;SDS011;9284;52.298;21.164;2022-09-20T20:26:57;36.10;;;17.45;;
18316;SDS011;9284;52.298;21.164;2022-09-20T20:29:27;33.47;;;17.65;;
18316;SDS011;9284;52.298;21.164;2022-09-20T20:31:57;32.55;;;17.02;;
18316;SDS011;9284;52.298;21.164;2022-09-20T20:34:30;30.73;;;17.02;;
18316;SDS011;9284;52.298;21.164;2022-09-20T20:37:00;38.65;;;17.13;;
18316;SDS011;9284;52.298;21.164;2022-09-20T20:39:28;35.22;;;17.17;;
18316;SDS011;9284;52.298;21.164;2022-09-20T20:41:57;32.08;;;17.05;;
18316;SDS011;9284;52.298;21.164;2022-09-20T20:44:28;31.27;;;16.65;;
18316;SDS011;9284;52.298;21.164;2022-09-20T20:46:58;30.77;;;16.13;;